Time;durP1;ratioP1;P1;durP2;ratioP2;P2;SDS_P1;SDS_P2;PMS_P1;PMS_P2;Temp;Humidity;BMP_temperature;BMP_pressure;BME280_temperature;BME280_humidity;BME280_pressure;Samples;Min_cycle;Max_cycle;Signal;HPM_P1;HPM_P2
2023/11/12 00:01:29;;;;;;;4.93;3.93;;;;;;;;;;4967700;29;20523;-83
2023/11/12 00:03:57;;;;;;;5.13;4.67;;;;;;;;;;4966624;29;20453;-84
2023/11/12 00:06:25;;;;;;;5.80;4.43;;;;;;;;;;4966534;28;20472;-83
2023/11/12 00:08:58;;;;;;;4.83;4.43;;;;;;;;;;4968341;28;20460;-82
2023/11/12 00:12:17;;;;;;;;;;;;;;;;;;;;;
2023/11/12 00:14:50;;;;;;;5.03;4.40;;;;;;;;;;4967899;28;20488;-86
2023/11/12 00:17:20;;;;;;;4.80;4.27;;;;;;;;;;4969364;28;20453;-84
2023/11/12 00:19:49;;;;;;;4.83;4.43;;;;;;;;;;4967329;28;20449;-82
2023/11/12 00:22:39;;;;;;;9.80;4.63;;;;;;;;;;4967023;29;20461;-83
2023/11/12 00:25:08;;;;;;;5.73;5.13;;;;;;;;;;4966993;28;20487;-83
2023/11/12 00:27:42;;;;;;;5.47;4.90;;;;;;;;;;4968210;28;20460;-83
2023/11/12 00:30:18;;;;;;;6.43;4.80;;;;;;;;;;4966178;29;20461;-84
2023/11/12 00:32:45;;;;;;;7.33;5.00;;;;;;;;;;4968221;28;20463;-83
2023/11/12 00:35:13;;;;;;;5.13;4.70;;;;;;;;;;4967076;28;20489;-83
2023/11/12 00:37:43;;;;;;;7.77;5.47;;;;;;;;;;4967056;29;20461;-86
2023/11/12 00:40:17;;;;;;;5.93;5.43;;;;;;;;;;4962641;28;20452;-85
2023/11/12 00:43:32;;;;;;;7.27;5.17;;;;;;;;;;4968565;29;20424;-83
2023/11/12 00:46:00;;;;;;;6.13;4.70;;;;;;;;;;4970445;28;20479;-85
2023/11/12 00:48:28;;;;;;;5.80;4.83;;;;;;;;;;4966193;28;20481;-84
2023/11/12 00:50:58;;;;;;;5.30;4.60;;;;;;;;;;4967577;29;20528;-84
2023/11/12 00:53:27;;;;;;;7.13;5.67;;;;;;;;;;4968361;29;20453;-84
2023/11/12 00:55:55;;;;;;;7.93;5.37;;;;;;;;;;4966289;28;20504;-84
2023/11/12 00:58:24;;;;;;;6.80;4.90;;;;;;;;;;4965726;29;21035;-85
2023/11/12 01:00:52;;;;;;;5.30;4.63;;;;;;;;;;4962084;28;20900;-85
2023/11/12 01:03:19;;;;;;;5.77;5.00;;;;;;;;;;4968246;29;20452;-83
2023/11/12 01:05:52;;;;;;;7.77;5.70;;;;;;;;;;4949606;28;20480;-86
2023/11/12 01:08:20;;;;;;;6.20;5.07;;;;;;;;;;4963936;29;20532;-83
2023/11/12 01:10:48;;;;;;;5.50;5.00;;;;;;;;;;4970289;28;20468;-83
2023/11/12 01:13:15;;;;;;;7.77;5.47;;;;;;;;;;4965942;28;20463;-85
2023/11/12 01:15:43;;;;;;;5.40;4.90;;;;;;;;;;4959050;28;20465;-85
2023/11/12 01:18:11;;;;;;;7.30;6.30;;;;;;;;;;4964322;29;20449;-84
2023/11/12 01:20:40;;;;;;;6.13;5.50;;;;;;;;;;4963974;28;20460;-85
2023/11/12 01:23:07;;;;;;;5.90;5.13;;;;;;;;;;4964896;28;20449;-86
2023/11/12 01:25:34;;;;;;;6.57;5.37;;;;;;;;;;4976770;28;20496;-84
2023/11/12 01:28:04;;;;;;;5.17;4.70;;;;;;;;;;4971614;28;20518;-85
2023/11/12 01:30:31;;;;;;;6.07;5.47;;;;;;;;;;4963982;29;20472;-82
2023/11/12 01:32:58;;;;;;;5.00;4.57;;;;;;;;;;4963405;29;20470;-83
2023/11/12 01:35:25;;;;;;;5.10;4.07;;;;;;;;;;4966769;28;20489;-86
2023/11/12 01:37:57;;;;;;;5.80;5.13;;;;;;;;;;4965225;29;20452;-84
2023/11/12 01:40:28;;;;;;;5.73;5.07;;;;;;;;;;4965925;28;20441;-84
2023/11/12 01:42:59;;;;;;;5.97;5.37;;;;;;;;;;4951350;29;20474;-84
2023/11/12 01:45:27;;;;;;;6.80;5.17;;;;;;;;;;4980639;28;20504;-82
2023/11/12 01:47:57;;;;;;;8.13;6.13;;;;;;;;;;4968827;29;20947;-84
2023/11/12 01:50:25;;;;;;;7.80;6.53;;;;;;;;;;4964861;29;20456;-82
2023/11/12 01:52:53;;;;;;;6.67;5.63;;;;;;;;;;4968718;29;20464;-84
2023/11/12 01:55:23;;;;;;;6.57;5.80;;;;;;;;;;4968719;28;20488;-83
2023/11/12 01:57:52;;;;;;;6.53;5.70;;;;;;;;;;4970781;28;20448;-84
2023/11/12 02:00:22;;;;;;;7.20;5.87;;;;;;;;;;4969355;28;20460;-84
2023/11/12 02:02:52;;;;;;;6.17;5.57;;;;;;;;;;4980969;28;20837;-84
2023/11/12 02:05:20;;;;;;;5.80;5.20;;;;;;;;;;4965456;28;20491;-86
2023/11/12 02:07:48;;;;;;;6.03;5.17;;;;;;;;;;4974540;28;20453;-83
2023/11/12 02:10:16;;;;;;;10.60;5.97;;;;;;;;;;4958280;29;20469;-84
2023/11/12 02:12:44;;;;;;;7.53;5.53;;;;;;;;;;4974608;28;20461;-84
2023/11/12 02:15:17;;;;;;;8.13;5.90;;;;;;;;;;4966998;28;20489;-83
2023/11/12 02:17:44;;;;;;;14.60;6.07;;;;;;;;;;4964922;29;20504;-86
2023/11/12 02:20:15;;;;;;;6.77;6.07;;;;;;;;;;4982568;28;20501;-85
2023/11/12 02:22:43;;;;;;;7.63;6.90;;;;;;;;;;4963049;28;20480;-85
2023/11/12 02:25:11;;;;;;;7.03;4.93;;;;;;;;;;4965194;28;20469;-84
2023/11/12 02:27:41;;;;;;;7.67;6.17;;;;;;;;;;4944636;29;20452;-85
2023/11/12 02:30:08;;;;;;;6.10;5.30;;;;;;;;;;4973819;28;20492;-86
2023/11/12 02:32:36;;;;;;;8.03;6.87;;;;;;;;;;4966498;29;20541;-84
2023/11/12 02:35:04;;;;;;;6.43;5.40;;;;;;;;;;4970078;28;20552;-85
2023/11/12 02:37:32;;;;;;;8.07;6.40;;;;;;;;;;4970964;29;20453;-84
2023/11/12 02:39:59;;;;;;;6.87;5.60;;;;;;;;;;4970629;28;20460;-83
2023/11/12 02:42:29;;;;;;;5.90;5.13;;;;;;;;;;4972413;28;20635;-83
2023/11/12 02:44:59;;;;;;;10.40;5.53;;;;;;;;;;4971431;28;20472;-88
2023/11/12 02:47:27;;;;;;;6.13;5.53;;;;;;;;;;4991213;28;20456;-84
2023/11/12 02:50:07;;;;;;;7.87;5.47;;;;;;;;;;4979973;28;20496;-85
2023/11/12 02:52:35;;;;;;;6.23;5.13;;;;;;;;;;4981415;28;20508;-85
2023/11/12 02:55:02;;;;;;;8.40;5.10;;;;;;;;;;4981279;28;20476;-85
2023/11/12 02:57:29;;;;;;;10.87;5.30;;;;;;;;;;4996542;28;20445;-84
2023/11/12 02:59:56;;;;;;;6.33;5.60;;;;;;;;;;4979953;28;20457;-81
2023/11/12 03:02:23;;;;;;;6.70;5.43;;;;;;;;;;4971085;29;20441;-82
2023/11/12 03:04:51;;;;;;;5.80;5.27;;;;;;;;;;4988345;28;20467;-82
2023/11/12 03:07:18;;;;;;;5.73;5.20;;;;;;;;;;4966159;29;20461;-83
2023/11/12 03:09:46;;;;;;;6.77;6.07;;;;;;;;;;4966258;28;20465;-85
2023/11/12 03:12:13;;;;;;;6.00;5.33;;;;;;;;;;4967369;29;20453;-82
2023/11/12 03:14:42;;;;;;;5.43;4.60;;;;;;;;;;4964234;29;20515;-83
2023/11/12 03:17:10;;;;;;;5.90;5.30;;;;;;;;;;4975255;28;20475;-84
2023/11/12 03:19:37;;;;;;;6.20;5.10;;;;;;;;;;4972725;29;20449;-85
2023/11/12 03:22:05;;;;;;;5.73;4.70;;;;;;;;;;4976848;29;20445;-85
2023/11/12 03:24:32;;;;;;;5.63;4.50;;;;;;;;;;4976195;28;20472;-85
2023/11/12 03:26:59;;;;;;;5.20;4.50;;;;;;;;;;4969270;29;20481;-88
2023/11/12 03:29:26;;;;;;;6.40;4.50;;;;;;;;;;4975501;28;20456;-84
2023/11/12 03:31:55;;;;;;;7.13;3.83;;;;;;;;;;4990253;28;20452;-87
2023/11/12 03:34:24;;;;;;;4.00;3.60;;;;;;;;;;4969256;28;20468;-88
2023/11/12 03:36:51;;;;;;;5.50;3.70;;;;;;;;;;4978162;28;20484;-87
2023/11/12 03:39:18;;;;;;;4.60;4.17;;;;;;;;;;4979722;28;20461;-87
2023/11/12 03:41:46;;;;;;;5.00;3.90;;;;;;;;;;4980219;28;20441;-87
2023/11/12 03:44:14;;;;;;;7.07;3.40;;;;;;;;;;4980075;28;20468;-86
2023/11/12 03:46:41;;;;;;;3.87;3.50;;;;;;;;;;4978031;28;20472;-83
2023/11/12 03:49:08;;;;;;;3.50;3.20;;;;;;;;;;4963244;29;20456;-83
2023/11/12 03:51:35;;;;;;;4.37;3.97;;;;;;;;;;4964071;29;20453;-85
2023/11/12 03:54:02;;;;;;;5.03;3.10;;;;;;;;;;4978483;28;20446;-84
2023/11/12 03:56:30;;;;;;;4.43;3.20;;;;;;;;;;4977857;28;20556;-83
2023/11/12 03:58:57;;;;;;;6.20;3.33;;;;;;;;;;4962295;29;20992;-85
2023/11/12 04:01:24;;;;;;;3.80;3.47;;;;;;;;;;4969067;28;20453;-84
2023/11/12 04:03:52;;;;;;;3.53;3.20;;;;;;;;;;4964206;28;20453;-84
2023/11/12 04:06:20;;;;;;;4.10;3.60;;;;;;;;;;4960680;28;20484;-84
2023/11/12 04:08:47;;;;;;;3.93;3.60;;;;;;;;;;4961097;28;20469;-84
2023/11/12 04:11:14;;;;;;;5.00;3.40;;;;;;;;;;4961300;29;20848;-83
2023/11/12 04:13:41;;;;;;;6.20;3.17;;;;;;;;;;4960571;29;20548;-86
2023/11/12 04:16:09;;;;;;;3.80;3.50;;;;;;;;;;4959837;28;20925;-83
2023/11/12 04:18:36;;;;;;;3.90;3.50;;;;;;;;;;4961320;29;20457;-83
2023/11/12 04:21:06;;;;;;;4.00;3.50;;;;;;;;;;4960020;28;20461;-85
2023/11/12 04:23:33;;;;;;;7.13;3.83;;;;;;;;;;4960261;28;20457;-84
2023/11/12 04:26:01;;;;;;;3.40;2.70;;;;;;;;;;4955387;28;20494;-84
2023/11/12 04:28:28;;;;;;;3.07;2.77;;;;;;;;;;4977082;28;20449;-84
2023/11/12 04:30:57;;;;;;;3.33;3.13;;;;;;;;;;4979830;28;20488;-85
2023/11/12 04:33:24;;;;;;;9.67;2.87;;;;;;;;;;4966476;28;20452;-85
2023/11/12 04:35:52;;;;;;;3.30;3.07;;;;;;;;;;4968502;28;20492;-85
2023/11/12 04:38:20;;;;;;;4.13;3.03;;;;;;;;;;4962188;29;20449;-83
2023/11/12 04:40:48;;;;;;;3.33;2.90;;;;;;;;;;4969024;28;20448;-83
2023/11/12 04:43:16;;;;;;;3.23;3.00;;;;;;;;;;4961888;28;20975;-85
2023/11/12 04:45:44;;;;;;;3.30;2.70;;;;;;;;;;4964883;28;20480;-85
2023/11/12 04:48:11;;;;;;;5.40;3.03;;;;;;;;;;4965967;28;20455;-83
2023/11/12 04:50:38;;;;;;;3.00;2.80;;;;;;;;;;4962630;29;20459;-86
2023/11/12 04:53:06;;;;;;;6.23;3.50;;;;;;;;;;4963822;29;20536;-84
2023/11/12 04:55:34;;;;;;;4.43;3.83;;;;;;;;;;4961589;28;20493;-85
2023/11/12 04:58:01;;;;;;;5.67;5.17;;;;;;;;;;4962316;29;20463;-84
2023/11/12 05:00:28;;;;;;;6.97;6.00;;;;;;;;;;4960036;29;20464;-85
2023/11/12 05:02:56;;;;;;;8.13;6.40;;;;;;;;;;4963524;28;20465;-84
2023/11/12 05:05:23;;;;;;;6.40;5.90;;;;;;;;;;4960629;28;21011;-84
2023/11/12 05:07:50;;;;;;;6.43;5.80;;;;;;;;;;4956227;28;20464;-86
2023/11/12 05:10:18;;;;;;;5.33;4.80;;;;;;;;;;4960634;29;20471;-84
2023/11/12 05:12:45;;;;;;;3.57;3.30;;;;;;;;;;4960645;29;20956;-84
2023/11/12 05:15:13;;;;;;;6.30;3.47;;;;;;;;;;4958991;28;20495;-85
2023/11/12 05:17:41;;;;;;;3.80;3.50;;;;;;;;;;4962718;28;20453;-84
2023/11/12 05:20:08;;;;;;;3.77;3.43;;;;;;;;;;4963555;28;20516;-86
2023/11/12 05:22:37;;;;;;;3.30;3.00;;;;;;;;;;4959811;29;20489;-85
2023/11/12 05:25:05;;;;;;;3.67;3.27;;;;;;;;;;4977189;28;20471;-84
2023/11/12 05:27:34;;;;;;;3.40;3.10;;;;;;;;;;4959494;28;20544;-84
2023/11/12 05:30:02;;;;;;;3.07;2.87;;;;;;;;;;4960411;29;20483;-84
2023/11/12 05:32:30;;;;;;;5.07;3.43;;;;;;;;;;4960954;28;20453;-84
2023/11/12 05:34:57;;;;;;;4.10;3.17;;;;;;;;;;4960560;28;20463;-84
2023/11/12 05:37:24;;;;;;;5.10;3.27;;;;;;;;;;4959923;29;20459;-86
2023/11/12 05:39:52;;;;;;;8.07;3.20;;;;;;;;;;4954132;29;20804;-82
2023/11/12 05:42:19;;;;;;;3.60;3.37;;;;;;;;;;4975287;28;20451;-84
2023/11/12 05:44:46;;;;;;;3.67;3.37;;;;;;;;;;4975719;29;20459;-86
2023/11/12 05:47:14;;;;;;;3.80;3.50;;;;;;;;;;4968553;28;20448;-84
2023/11/12 05:49:43;;;;;;;4.57;3.80;;;;;;;;;;4962349;28;20532;-84
2023/11/12 05:52:11;;;;;;;4.20;3.60;;;;;;;;;;4976822;28;20445;-83
2023/11/12 05:54:38;;;;;;;4.03;3.67;;;;;;;;;;4960150;28;20453;-84
2023/11/12 05:57:06;;;;;;;4.60;3.80;;;;;;;;;;4962303;28;20495;-84
2023/11/12 05:59:33;;;;;;;4.30;4.00;;;;;;;;;;4953115;29;20521;-84
2023/11/12 06:02:01;;;;;;;7.23;5.37;;;;;;;;;;4960235;28;20463;-85
2023/11/12 06:04:28;;;;;;;3.83;3.37;;;;;;;;;;4962439;29;20487;-83
2023/11/12 06:06:55;;;;;;;4.27;3.57;;;;;;;;;;4974535;28;20484;-84
2023/11/12 06:09:23;;;;;;;3.90;3.60;;;;;;;;;;4959959;29;20456;-86
2023/11/12 06:11:53;;;;;;;5.47;4.00;;;;;;;;;;4969708;28;20478;-84
2023/11/12 06:14:23;;;;;;;4.30;3.90;;;;;;;;;;4957452;29;20464;-83
2023/11/12 06:16:50;;;;;;;3.97;3.67;;;;;;;;;;4973961;28;20481;-85
2023/11/12 06:19:18;;;;;;;3.90;3.53;;;;;;;;;;4958452;28;20529;-84
2023/11/12 06:21:45;;;;;;;7.07;3.53;;;;;;;;;;4976275;28;20468;-84
2023/11/12 06:24:12;;;;;;;3.80;3.10;;;;;;;;;;4971124;28;20457;-84
2023/11/12 06:26:40;;;;;;;3.80;3.40;;;;;;;;;;4979136;28;20506;-85
2023/11/12 06:29:08;;;;;;;6.00;4.00;;;;;;;;;;4982424;28;20555;-85
2023/11/12 06:31:35;;;;;;;4.77;3.70;;;;;;;;;;4970155;28;20463;-84
2023/11/12 06:34:03;;;;;;;4.10;3.80;;;;;;;;;;4968175;29;20449;-85
2023/11/12 06:36:31;;;;;;;4.80;4.30;;;;;;;;;;4963832;28;20488;-86
2023/11/12 06:38:58;;;;;;;4.00;3.60;;;;;;;;;;4963223;29;20531;-84
2023/11/12 06:41:26;;;;;;;4.30;3.87;;;;;;;;;;4963245;28;20467;-83
2023/11/12 06:43:53;;;;;;;4.30;3.90;;;;;;;;;;4963844;28;20453;-84
2023/11/12 06:46:21;;;;;;;4.50;3.93;;;;;;;;;;4962366;28;20468;-82
2023/11/12 06:48:55;;;;;;;4.37;3.90;;;;;;;;;;4957828;28;20489;-86
2023/11/12 06:51:26;;;;;;;4.37;3.93;;;;;;;;;;4978898;28;20436;-84
2023/11/12 06:53:57;;;;;;;5.00;4.10;;;;;;;;;;4962325;29;20474;-84
2023/11/12 06:56:25;;;;;;;6.67;4.20;;;;;;;;;;4956454;29;20476;-83
2023/11/12 06:58:55;;;;;;;6.83;4.00;;;;;;;;;;4962202;29;20449;-83
2023/11/12 07:01:23;;;;;;;5.80;4.53;;;;;;;;;;4963067;28;20524;-84
2023/11/12 07:03:53;;;;;;;4.73;4.23;;;;;;;;;;4959555;28;20496;-84
2023/11/12 07:06:22;;;;;;;5.70;5.10;;;;;;;;;;4959089;28;20501;-83
2023/11/12 07:08:49;;;;;;;5.80;4.20;;;;;;;;;;4965400;28;20477;-86
2023/11/12 07:11:20;;;;;;;4.80;4.30;;;;;;;;;;4968695;28;20504;-85
2023/11/12 07:13:52;;;;;;;4.90;4.50;;;;;;;;;;4960440;28;20465;-83
2023/11/12 07:16:21;;;;;;;4.80;4.13;;;;;;;;;;4979968;28;20484;-84
2023/11/12 07:18:48;;;;;;;5.97;4.53;;;;;;;;;;4965025;29;20945;-85
2023/11/12 07:21:30;;;;;;;6.70;4.50;;;;;;;;;;4965545;29;20457;-84
2023/11/12 07:23:59;;;;;;;6.53;4.43;;;;;;;;;;4978520;28;20528;-83
2023/11/12 07:26:27;;;;;;;6.60;5.13;;;;;;;;;;4966210;28;20848;-85
2023/11/12 07:28:58;;;;;;;5.50;4.87;;;;;;;;;;4969567;29;20481;-83
2023/11/12 07:31:26;;;;;;;4.57;4.13;;;;;;;;;;4984928;28;20468;-85
2023/11/12 07:33:56;;;;;;;7.03;4.57;;;;;;;;;;4977599;28;20553;-85
2023/11/12 07:36:24;;;;;;;4.60;4.20;;;;;;;;;;4961045;28;20517;-85
2023/11/12 07:38:51;;;;;;;6.97;4.57;;;;;;;;;;4964636;29;20448;-83
2023/11/12 07:41:22;;;;;;;5.73;5.23;;;;;;;;;;4963894;28;20488;-85
2023/11/12 07:43:50;;;;;;;6.10;4.60;;;;;;;;;;4961265;28;20454;-83
2023/11/12 07:46:18;;;;;;;5.37;4.63;;;;;;;;;;4978456;28;20852;-85
2023/11/12 07:48:46;;;;;;;4.43;4.03;;;;;;;;;;4964662;29;20449;-84
2023/11/12 07:51:15;;;;;;;7.50;4.20;;;;;;;;;;4963435;29;20454;-85
2023/11/12 07:53:42;;;;;;;5.40;4.90;;;;;;;;;;4963281;28;20453;-83
2023/11/12 07:56:10;;;;;;;4.73;4.27;;;;;;;;;;4964155;28;20519;-84
2023/11/12 07:58:50;;;;;;;5.10;4.60;;;;;;;;;;4964088;29;20448;-85
2023/11/12 08:01:24;;;;;;;4.77;4.23;;;;;;;;;;4961868;29;20462;-85
2023/11/12 08:03:52;;;;;;;9.30;4.23;;;;;;;;;;4961462;28;20453;-81
2023/11/12 08:06:30;;;;;;;4.70;4.30;;;;;;;;;;4965997;28;20485;-85
2023/11/12 08:08:59;;;;;;;4.90;3.97;;;;;;;;;;4966840;29;20489;-84
2023/11/12 08:11:34;;;;;;;4.50;4.10;;;;;;;;;;4982392;28;20464;-82
2023/11/12 08:14:06;;;;;;;6.43;4.37;;;;;;;;;;4966462;29;20457;-85
2023/11/12 08:16:36;;;;;;;5.70;4.60;;;;;;;;;;4965470;28;20496;-84
2023/11/12 08:19:04;;;;;;;5.20;4.70;;;;;;;;;;4963738;28;20528;-84
2023/11/12 08:21:32;;;;;;;8.63;4.80;;;;;;;;;;4962616;28;20455;-84
2023/11/12 08:23:59;;;;;;;5.60;4.47;;;;;;;;;;4960244;29;20463;-83
2023/11/12 08:26:27;;;;;;;6.60;4.77;;;;;;;;;;4968462;28;20504;-82
2023/11/12 08:28:56;;;;;;;6.50;4.70;;;;;;;;;;4977333;28;20441;-84
2023/11/12 08:31:25;;;;;;;7.97;4.97;;;;;;;;;;4983314;28;20439;-84
2023/11/12 08:33:53;;;;;;;7.20;4.50;;;;;;;;;;4968167;28;20540;-81
2023/11/12 08:36:21;;;;;;;5.60;3.87;;;;;;;;;;4974154;29;20497;-84
2023/11/12 08:38:48;;;;;;;4.10;3.70;;;;;;;;;;4962516;29;20492;-83
2023/11/12 08:41:17;;;;;;;7.43;4.67;;;;;;;;;;4960071;28;20464;-83
2023/11/12 08:43:46;;;;;;;5.53;5.03;;;;;;;;;;4959814;29;20524;-82
2023/11/12 08:46:17;;;;;;;11.60;5.50;;;;;;;;;;4958006;28;20590;-83
2023/11/12 08:48:45;;;;;;;5.20;4.37;;;;;;;;;;4959101;29;20472;-83
2023/11/12 08:51:13;;;;;;;4.50;4.10;;;;;;;;;;4956688;28;20481;-82
2023/11/12 08:53:40;;;;;;;5.70;4.50;;;;;;;;;;4952212;29;20453;-83
2023/11/12 08:56:08;;;;;;;5.03;3.90;;;;;;;;;;4953606;28;20497;-82
2023/11/12 08:58:36;;;;;;;4.50;4.10;;;;;;;;;;4960226;28;20833;-82
2023/11/12 09:01:08;;;;;;;4.43;4.00;;;;;;;;;;4955847;28;20461;-84
2023/11/12 09:03:37;;;;;;;4.90;4.40;;;;;;;;;;4971542;28;20458;-85
2023/11/12 09:06:05;;;;;;;6.37;4.57;;;;;;;;;;4963517;28;20476;-85
2023/11/12 09:08:33;;;;;;;5.30;3.90;;;;;;;;;;4960911;28;20566;-85
2023/11/12 09:11:01;;;;;;;4.60;3.93;;;;;;;;;;4959929;29;20551;-84
2023/11/12 09:13:28;;;;;;;5.00;4.20;;;;;;;;;;4959909;28;20456;-85
2023/11/12 09:15:58;;;;;;;4.80;4.23;;;;;;;;;;4961165;28;20484;-83
2023/11/12 09:18:25;;;;;;;5.07;4.13;;;;;;;;;;4959828;28;20512;-86
2023/11/12 09:20:54;;;;;;;6.20;3.80;;;;;;;;;;4961412;29;20484;-84
2023/11/12 09:23:22;;;;;;;5.43;4.27;;;;;;;;;;4956599;29;20551;-84
2023/11/12 09:25:49;;;;;;;4.93;4.40;;;;;;;;;;4957713;28;20519;-85
2023/11/12 09:28:17;;;;;;;4.37;3.67;;;;;;;;;;4960423;29;20500;-85
2023/11/12 09:30:45;;;;;;;8.13;3.83;;;;;;;;;;4963370;29;20496;-86
2023/11/12 09:33:20;;;;;;;8.73;3.60;;;;;;;;;;4968784;28;20928;-85
2023/11/12 09:35:48;;;;;;;4.00;3.60;;;;;;;;;;4962925;28;20472;-85
2023/11/12 09:38:18;;;;;;;3.53;3.20;;;;;;;;;;4964216;29;20516;-83
2023/11/12 09:40:46;;;;;;;5.40;3.67;;;;;;;;;;4959649;28;20471;-84
2023/11/12 09:43:14;;;;;;;3.83;3.53;;;;;;;;;;4970692;29;20538;-83
2023/11/12 09:45:54;;;;;;;5.10;3.50;;;;;;;;;;4964943;29;20515;-84
2023/11/12 09:48:35;;;;;;;4.00;3.60;;;;;;;;;;4967272;28;20445;-83
2023/11/12 09:51:09;;;;;;;4.97;3.77;;;;;;;;;;4965224;29;20471;-83
2023/11/12 09:53:41;;;;;;;6.33;3.90;;;;;;;;;;4964683;29;20496;-81
2023/11/12 09:56:25;;;;;;;4.87;4.00;;;;;;;;;;4965334;28;20485;-85
2023/11/12 09:58:53;;;;;;;3.40;2.93;;;;;;;;;;4963664;28;20512;-82
2023/11/12 10:01:33;;;;;;;8.10;3.63;;;;;;;;;;4961425;28;20513;-85
2023/11/12 10:04:02;;;;;;;6.63;3.50;;;;;;;;;;4965716;29;20449;-85
2023/11/12 10:06:36;;;;;;;6.50;4.80;;;;;;;;;;4962457;28;20483;-83
2023/11/12 10:09:09;;;;;;;6.57;4.20;;;;;;;;;;4966527;28;20456;-82
2023/11/12 10:11:37;;;;;;;4.80;3.77;;;;;;;;;;4950983;29;20894;-82
2023/11/12 10:14:16;;;;;;;4.13;3.77;;;;;;;;;;4990673;28;20440;-87
2023/11/12 10:16:50;;;;;;;4.93;3.50;;;;;;;;;;4982135;28;20504;-86
2023/11/12 10:19:24;;;;;;;3.60;3.10;;;;;;;;;;4981958;28;20444;-86
2023/11/12 10:22:03;;;;;;;4.50;3.63;;;;;;;;;;4981593;28;20446;-87
2023/11/12 10:28:05;;;;;;;4.30;3.37;;;;;;;;;;4973005;26;20489;-84
2023/11/12 10:30:47;;;;;;;4.73;3.90;;;;;;;;;;4979775;28;20479;-84
2023/11/12 10:33:23;;;;;;;6.17;3.40;;;;;;;;;;4983918;28;20449;-84
2023/11/12 10:36:08;;;;;;;3.83;3.27;;;;;;;;;;4974202;28;20817;-85
2023/11/12 10:39:03;;;;;;;3.53;3.13;;;;;;;;;;4996039;28;20449;-85
2023/11/12 10:41:36;;;;;;;4.60;3.03;;;;;;;;;;4966037;29;20448;-84
2023/11/12 10:44:07;;;;;;;4.50;3.23;;;;;;;;;;4963871;28;20469;-85
2023/11/12 10:46:39;;;;;;;3.07;2.77;;;;;;;;;;4990023;28;20550;-88
2023/11/12 10:49:12;;;;;;;6.17;3.63;;;;;;;;;;4992870;28;20459;-84
2023/11/12 10:51:41;;;;;;;4.77;3.23;;;;;;;;;;4997303;28;20455;-85
2023/11/12 10:54:13;;;;;;;5.67;3.07;;;;;;;;;;4969979;28;20454;-85
2023/11/12 11:00:57;;;;;;;;;;;;;;;;;;;;;
2023/11/12 11:03:51;;;;;;;3.73;3.37;;;;;;;;;;4960755;29;20427;-85
2023/11/12 11:06:19;;;;;;;5.13;3.10;;;;;;;;;;4965350;29;20473;-85
2023/11/12 11:08:46;;;;;;;4.10;2.77;;;;;;;;;;5001719;28;20473;-85
2023/11/12 11:11:15;;;;;;;2.70;2.40;;;;;;;;;;4970131;28;20500;-85
2023/11/12 11:13:46;;;;;;;3.60;2.70;;;;;;;;;;4958424;29;20569;-85
2023/11/12 11:16:34;;;;;;;5.13;3.20;;;;;;;;;;4972144;28;20472;-85
2023/11/12 11:19:05;;;;;;;3.97;3.17;;;;;;;;;;4968409;29;20455;-84
2023/11/12 11:21:36;;;;;;;3.00;2.77;;;;;;;;;;4972291;28;20525;-85
2023/11/12 11:24:08;;;;;;;2.80;2.57;;;;;;;;;;4988383;28;20468;-85
2023/11/12 11:26:40;;;;;;;3.20;2.90;;;;;;;;;;4983668;28;20491;-84
2023/11/12 11:29:16;;;;;;;5.47;3.50;;;;;;;;;;4990533;28;20808;-82
2023/11/12 11:32:09;;;;;;;3.40;3.10;;;;;;;;;;4967050;28;20497;-84
2023/11/12 11:34:56;;;;;;;3.50;3.10;;;;;;;;;;4965599;29;20543;-83
2023/11/12 11:37:45;;;;;;;4.97;3.30;;;;;;;;;;4989388;28;20485;-83
2023/11/12 11:40:30;;;;;;;3.07;2.87;;;;;;;;;;4991656;28;20969;-85
2023/11/12 11:43:16;;;;;;;4.37;3.47;;;;;;;;;;4993072;28;20454;-85
2023/11/12 11:46:04;;;;;;;3.40;3.10;;;;;;;;;;4982863;28;20488;-84
2023/11/12 11:48:31;;;;;;;5.50;3.30;;;;;;;;;;4964160;28;20453;-87
2023/11/12 11:51:00;;;;;;;3.93;3.27;;;;;;;;;;4983355;28;20497;-83
2023/11/12 11:53:38;;;;;;;3.43;2.83;;;;;;;;;;4992454;28;20579;-84
2023/11/12 11:56:11;;;;;;;3.77;3.10;;;;;;;;;;4966447;28;20477;-85
2023/11/12 11:58:47;;;;;;;3.83;3.10;;;;;;;;;;4970601;28;20483;-84
2023/11/12 12:01:14;;;;;;;3.27;2.93;;;;;;;;;;4966221;28;20959;-85
2023/11/12 12:03:45;;;;;;;3.43;3.10;;;;;;;;;;4964211;28;20477;-84
2023/11/12 12:06:15;;;;;;;3.50;2.87;;;;;;;;;;4967215;28;20525;-82
2023/11/12 12:08:57;;;;;;;5.07;2.60;;;;;;;;;;4987374;28;20452;-84
2023/11/12 12:11:26;;;;;;;3.43;2.93;;;;;;;;;;4959227;28;20461;-84
2023/11/12 12:13:57;;;;;;;2.97;2.50;;;;;;;;;;4960699;29;20462;-85
2023/11/12 12:16:28;;;;;;;5.67;3.17;;;;;;;;;;4984686;28;20539;-86
2023/11/12 12:18:56;;;;;;;3.20;2.83;;;;;;;;;;4985219;28;20480;-84
2023/11/12 12:21:24;;;;;;;2.50;2.30;;;;;;;;;;4958952;29;20548;-84
2023/11/12 12:23:52;;;;;;;3.47;2.80;;;;;;;;;;4961436;28;20469;-85
2023/11/12 12:26:24;;;;;;;5.20;3.27;;;;;;;;;;4959137;29;20517;-84
2023/11/12 12:28:52;;;;;;;5.73;2.67;;;;;;;;;;4981554;28;20465;-85
2023/11/12 12:31:19;;;;;;;2.93;2.73;;;;;;;;;;4986908;28;20523;-85
2023/11/12 12:34:00;;;;;;;3.83;2.40;;;;;;;;;;4983702;28;20477;-85
2023/11/12 12:36:28;;;;;;;2.33;2.07;;;;;;;;;;4983950;28;20985;-84
2023/11/12 12:39:00;;;;;;;4.53;2.03;;;;;;;;;;4961909;29;20482;-86
2023/11/12 12:41:33;;;;;;;3.70;2.40;;;;;;;;;;4963300;28;20465;-84
2023/11/12 12:44:07;;;;;;;3.23;2.20;;;;;;;;;;4961153;29;20959;-84
2023/11/12 12:46:46;;;;;;;2.80;2.20;;;;;;;;;;4956133;29;20548;-84
2023/11/12 12:49:35;;;;;;;3.33;2.23;;;;;;;;;;4993677;28;20477;-87
2023/11/12 12:52:20;;;;;;;3.00;2.13;;;;;;;;;;4964731;29;20492;-85
2023/11/12 12:54:53;;;;;;;2.73;2.53;;;;;;;;;;4989265;28;20441;-86
2023/11/12 12:57:24;;;;;;;9.70;2.60;;;;;;;;;;4963477;28;20490;-86
2023/11/12 12:59:55;;;;;;;7.53;2.63;;;;;;;;;;4992492;28;20473;-85
2023/11/12 13:02:25;;;;;;;2.60;2.20;;;;;;;;;;4964994;28;20473;-85
2023/11/12 13:05:00;;;;;;;3.23;2.97;;;;;;;;;;4961120;28;20457;-86
2023/11/12 13:07:36;;;;;;;2.50;2.30;;;;;;;;;;4962572;28;20545;-83
2023/11/12 13:10:11;;;;;;;3.90;2.27;;;;;;;;;;4961818;28;21047;-85
2023/11/12 13:12:43;;;;;;;3.13;2.83;;;;;;;;;;4988855;28;20455;-84
2023/11/12 13:15:11;;;;;;;3.03;2.60;;;;;;;;;;4963662;28;20476;-84
2023/11/12 13:17:41;;;;;;;3.00;2.20;;;;;;;;;;4956628;28;20486;-84
2023/11/12 13:20:13;;;;;;;3.20;2.90;;;;;;;;;;4986453;28;20454;-84
2023/11/12 13:22:48;;;;;;;7.93;6.17;;;;;;;;;;4976537;28;21007;-84
2023/11/12 13:25:15;;;;;;;5.57;2.43;;;;;;;;;;4994408;28;20540;-84
2023/11/12 13:27:45;;;;;;;4.40;2.87;;;;;;;;;;4986981;28;20461;-86
2023/11/12 13:30:16;;;;;;;3.00;2.03;;;;;;;;;;4962169;29;20987;-86
2023/11/12 13:32:46;;;;;;;2.30;2.10;;;;;;;;;;4969179;28;20814;-85
2023/11/12 13:35:19;;;;;;;3.10;2.20;;;;;;;;;;4985435;28;20834;-84
2023/11/12 13:37:50;;;;;;;3.70;2.63;;;;;;;;;;4961528;28;20489;-84
2023/11/12 13:40:25;;;;;;;3.80;2.23;;;;;;;;;;4965361;28;20488;-85
2023/11/12 13:43:03;;;;;;;4.50;3.10;;;;;;;;;;4995010;28;20480;-86
2023/11/12 13:45:37;;;;;;;3.13;2.80;;;;;;;;;;4963706;28;20511;-86
2023/11/12 13:48:14;;;;;;;4.57;2.70;;;;;;;;;;4973609;28;20627;-84
2023/11/12 13:50:49;;;;;;;3.57;2.80;;;;;;;;;;4969034;28;21016;-83
2023/11/12 13:53:18;;;;;;;2.87;2.60;;;;;;;;;;4970724;29;20517;-86
2023/11/12 13:55:46;;;;;;;3.47;2.30;;;;;;;;;;4970366;28;20909;-85
2023/11/12 13:58:20;;;;;;;4.10;2.70;;;;;;;;;;4967521;29;20482;-84
2023/11/12 14:01:00;;;;;;;2.97;2.03;;;;;;;;;;4991118;28;20458;-84
2023/11/12 14:03:29;;;;;;;3.63;2.67;;;;;;;;;;5002235;28;20543;-84
2023/11/12 14:06:03;;;;;;;3.33;2.67;;;;;;;;;;4989664;28;20500;-83
2023/11/12 14:08:35;;;;;;;2.43;2.23;;;;;;;;;;4967020;29;20507;-85
2023/11/12 14:11:02;;;;;;;3.53;2.67;;;;;;;;;;4966708;29;20499;-85
2023/11/12 14:13:33;;;;;;;2.43;2.20;;;;;;;;;;4963121;29;20470;-83
2023/11/12 14:16:05;;;;;;;2.40;2.20;;;;;;;;;;4996644;28;20575;-84
2023/11/12 14:18:44;;;;;;;3.00;2.63;;;;;;;;;;4990648;28;20480;-84
2023/11/12 14:21:21;;;;;;;6.63;3.03;;;;;;;;;;4970631;28;20539;-83
2023/11/12 14:23:53;;;;;;;3.30;2.67;;;;;;;;;;4967974;28;20488;-83
2023/11/12 14:28:56;;;;;;;2.43;2.13;;;;;;;;;;5232306;23;20513;-83
2023/11/12 14:31:34;;;;;;;2.90;2.30;;;;;;;;;;5030970;28;20454;-85
2023/11/12 14:34:15;;;;;;;8.40;2.70;;;;;;;;;;5146732;22;20495;-84
2023/11/12 14:36:42;;;;;;;3.00;2.40;;;;;;;;;;4974950;28;20636;-83
2023/11/12 14:39:18;;;;;;;2.83;2.57;;;;;;;;;;4995663;28;20483;-84
2023/11/12 14:42:05;;;;;;;6.60;2.57;;;;;;;;;;4999863;28;20504;-83
2023/11/12 14:44:40;;;;;;;2.83;2.60;;;;;;;;;;4988003;28;20451;-83
2023/11/12 14:47:13;;;;;;;3.77;2.53;;;;;;;;;;4994942;28;20475;-84
2023/11/12 14:49:53;;;;;;;4.70;2.97;;;;;;;;;;4975121;28;20508;-84
2023/11/12 14:52:28;;;;;;;3.53;2.93;;;;;;;;;;4979757;28;20457;-83
2023/11/12 14:55:02;;;;;;;3.37;2.50;;;;;;;;;;4988601;28;20452;-83
2023/11/12 14:57:40;;;;;;;2.60;2.40;;;;;;;;;;4986088;28;20572;-85
2023/11/12 15:00:18;;;;;;;5.20;3.13;;;;;;;;;;4975192;28;20450;-83
2023/11/12 15:03:17;;;;;;;3.60;2.80;;;;;;;;;;4976404;28;20436;-87
2023/11/12 15:06:07;;;;;;;4.10;3.07;;;;;;;;;;4960802;28;20540;-85
2023/11/12 15:08:43;;;;;;;5.53;2.83;;;;;;;;;;4966092;28;20524;-85
2023/11/12 15:11:14;;;;;;;4.07;2.70;;;;;;;;;;4970639;28;20439;-85
2023/11/12 15:13:42;;;;;;;5.20;3.13;;;;;;;;;;4972062;28;20456;-86
2023/11/12 15:16:25;;;;;;;4.37;2.50;;;;;;;;;;4975489;28;20529;-86
2023/11/12 15:18:59;;;;;;;3.50;3.10;;;;;;;;;;4972385;28;20484;-86